Time;durP1;ratioP1;P1;durP2;ratioP2;P2;SDS_P1;SDS_P2;PMS_P1;PMS_P2;Temp;Humidity;BMP_temperature;BMP_pressure;BME280_temperature;BME280_humidity;BME280_pressure;Samples;Min_cycle;Max_cycle;Signal;HPM_P1;HPM_P2
2021/11/22 00:00:58;;;;;;;;;;;;;;;22.24;29.59;97547.22;5045731;28;951;-78
2021/11/22 00:03:23;;;;;;;;;;;;;;;22.28;29.49;97545.06;5042744;28;958;-80
2021/11/22 00:05:48;;;;;;;;;;;;;;;22.34;29.51;97545.25;5046695;28;811;-80
2021/11/22 00:08:14;;;;;;;;;;;;;;;22.41;29.56;97547.03;5044342;28;907;-79
2021/11/22 00:10:39;;;;;;;;;;;;;;;22.30;29.45;97539.72;5044737;28;1944;-79
2021/11/22 00:13:05;;;;;;;;;;;;;;;22.48;29.90;97532.59;5009482;28;932;-79
2021/11/22 00:15:30;;;;;;;;;;;;;;;22.74;29.10;97539.69;5044633;28;878;-78
2021/11/22 00:17:56;;;;;;;;;;;;;;;22.70;29.18;97544.72;5074243;28;1028;-79
2021/11/22 00:20:21;;;;;;;;;;;;;;;22.36;29.27;97535.03;5084638;28;959;-79
2021/11/22 00:22:47;;;;;;;;;;;;;;;22.17;29.39;97530.47;5088260;28;1006;-79
2021/11/22 00:25:13;;;;;;;;;;;;;;;22.25;29.35;97528.97;5087457;28;1001;-79
2021/11/22 00:27:38;;;;;;;;;;;;;;;22.34;29.40;97523.38;5088795;28;1023;-78
2021/11/22 00:30:15;;;;;;;;;;;;;;;22.20;29.53;97532.41;5050195;28;1906;-78
2021/11/22 00:33:10;;;;;;;;;;;;;;;22.63;29.35;97527.97;4988565;28;944;-79
2021/11/22 00:35:56;;;;;;;;;;;;;;;22.64;29.21;97529.56;4990839;28;1044;-79
2021/11/22 00:38:21;;;;;;;;;;;;;;;22.43;29.57;97521.84;4986494;28;968;-79
2021/11/22 00:40:47;;;;;;;;;;;;;;;22.48;28.87;97532.59;4989728;28;993;-77
2021/11/22 00:43:12;;;;;;;;;;;;;;;22.38;29.03;97539.44;4987306;28;953;-76
2021/11/22 00:45:38;;;;;;;;;;;;;;;22.31;29.83;97535.63;4989381;28;926;-77
2021/11/22 00:48:03;;;;;;;;;;;;;;;22.68;29.48;97535.06;4987759;28;983;-77
2021/11/22 00:50:29;;;;;;;;;;;;;;;22.83;29.08;97534.06;4972157;28;1946;-77
2021/11/22 00:52:54;;;;;;;;;;;;;;;22.45;29.04;97533.53;4987805;28;890;-77
2021/11/22 00:55:20;;;;;;;;;;;;;;;22.52;29.10;97524.75;4987465;28;866;-77
2021/11/22 00:57:45;;;;;;;;;;;;;;;22.30;29.07;97525.53;4988518;28;937;-76
2021/11/22 01:00:11;;;;;;;;;;;;;;;22.33;29.20;97516.13;4989931;28;1107;-77
2021/11/22 01:02:37;;;;;;;;;;;;;;;22.35;29.31;97513.63;5009043;28;1013;-77
2021/11/22 01:05:05;;;;;;;;;;;;;;;22.45;29.71;97513.69;5007047;28;871;-77
2021/11/22 01:07:30;;;;;;;;;;;;;;;22.76;29.19;97508.81;4989904;28;1179;-76
2021/11/22 01:09:56;;;;;;;;;;;;;;;22.86;28.78;97513.28;5026675;28;887;-77
2021/11/22 01:12:21;;;;;;;;;;;;;;;22.53;29.01;97514.97;5047973;28;1973;-76
2021/11/22 01:14:47;;;;;;;;;;;;;;;22.50;28.88;97510.25;5045912;28;955;-76
2021/11/22 01:17:15;;;;;;;;;;;;;;;22.05;29.77;97494.47;5048241;28;939;-76
2021/11/22 01:19:40;;;;;;;;;;;;;;;22.41;29.46;97504.50;5045989;28;981;-76
2021/11/22 01:22:06;;;;;;;;;;;;;;;22.31;29.37;97498.78;5047687;28;815;-77
2021/11/22 01:24:31;;;;;;;;;;;;;;;22.39;29.51;97507.03;5046120;28;947;-78
2021/11/22 01:26:57;;;;;;;;;;;;;;;22.69;29.22;97500.59;5014488;28;948;-77
2021/11/22 01:29:22;;;;;;;;;;;;;;;22.94;28.59;97501.66;5046317;28;962;-77
2021/11/22 01:31:48;;;;;;;;;;;;;;;22.50;29.02;97508.19;5026869;28;1895;-77
2021/11/22 01:34:13;;;;;;;;;;;;;;;22.32;29.45;97494.69;5026872;28;846;-77
2021/11/22 01:36:39;;;;;;;;;;;;;;;22.31;29.09;97500.81;5028639;28;812;-77
2021/11/22 01:39:04;;;;;;;;;;;;;;;22.26;29.41;97501.41;5040452;28;1301;-76
2021/11/22 01:41:30;;;;;;;;;;;;;;;22.39;29.16;97501.38;5048548;28;921;-77
2021/11/22 01:43:55;;;;;;;;;;;;;;;22.57;29.84;97507.13;5045156;28;1033;-77
2021/11/22 01:46:21;;;;;;;;;;;;;;;22.70;29.17;97504.22;5048340;28;922;-77
2021/11/22 01:48:47;;;;;;;;;;;;;;;22.54;29.12;97506.03;5043731;28;1117;-77
2021/11/22 01:51:12;;;;;;;;;;;;;;;22.30;29.56;97499.25;5047462;28;1891;-76
2021/11/22 01:53:38;;;;;;;;;;;;;;;22.36;29.22;97498.19;5043053;28;1065;-77
2021/11/22 01:56:03;;;;;;;;;;;;;;;22.27;29.41;97506.63;5047551;28;945;-77
2021/11/22 01:58:29;;;;;;;;;;;;;;;22.38;29.39;97500.53;5042623;28;990;-77
2021/11/22 02:00:55;;;;;;;;;;;;;;;22.14;29.62;97491.75;5048397;28;910;-77
2021/11/22 02:03:20;;;;;;;;;;;;;;;22.44;29.36;97503.59;5024478;28;1131;-77
2021/11/22 02:05:46;;;;;;;;;;;;;;;22.70;29.26;97504.22;4988857;28;994;-77
2021/11/22 02:08:12;;;;;;;;;;;;;;;22.74;29.30;97496.34;4988303;28;895;-77
2021/11/22 02:10:37;;;;;;;;;;;;;;;22.51;29.15;97497.66;5026407;28;1903;-76
2021/11/22 02:13:03;;;;;;;;;;;;;;;22.33;29.12;97499.13;5025400;28;1029;-77
2021/11/22 02:15:29;;;;;;;;;;;;;;;22.12;29.42;97490.59;5026304;28;1004;-77
2021/11/22 02:17:54;;;;;;;;;;;;;;;22.60;29.67;97500.53;5026116;28;1012;-77
2021/11/22 02:20:23;;;;;;;;;;;;;;;22.75;29.00;97495.91;5025133;28;1398;-77
2021/11/22 02:22:49;;;;;;;;;;;;;;;22.75;28.64;97484.56;5025002;28;1272;-77
2021/11/22 02:25:15;;;;;;;;;;;;;;;22.47;28.92;97492.09;5024044;28;926;-77
2021/11/22 02:27:41;;;;;;;;;;;;;;;22.33;28.84;97490.63;5007155;28;981;-77
2021/11/22 02:30:07;;;;;;;;;;;;;;;22.43;28.88;97494.28;5006007;28;976;-77
2021/11/22 02:32:35;;;;;;;;;;;;;;;22.40;28.96;97491.59;4968651;29;1892;-77
2021/11/22 02:35:01;;;;;;;;;;;;;;;22.38;29.04;97494.09;4966877;29;963;-77
2021/11/22 02:37:26;;;;;;;;;;;;;;;22.30;29.27;97500.03;4999162;28;923;-77
2021/11/22 02:39:52;;;;;;;;;;;;;;;22.34;29.20;97494.25;5004497;28;1030;-77
2021/11/22 02:42:40;;;;;;;;;;;;;;;22.45;29.87;97488.94;5007048;28;1090;-76
2021/11/22 02:45:05;;;;;;;;;;;;;;;22.74;29.24;97488.66;5004707;28;1077;-77
2021/11/22 02:47:31;;;;;;;;;;;;;;;22.53;29.17;97489.47;5006218;28;929;-77
2021/11/22 02:49:56;;;;;;;;;;;;;;;22.33;29.04;97493.47;5004226;28;875;-77
2021/11/22 02:52:22;;;;;;;;;;;;;;;22.30;29.18;97491.53;5007385;28;1964;-77
2021/11/22 02:54:47;;;;;;;;;;;;;;;22.49;29.62;97497.34;5003914;28;962;-77
2021/11/22 02:57:13;;;;;;;;;;;;;;;22.67;29.47;97494.59;5007287;28;890;-77
2021/11/22 02:59:41;;;;;;;;;;;;;;;22.66;28.88;97490.19;5022894;28;982;-77
2021/11/22 03:02:07;;;;;;;;;;;;;;;22.33;29.17;97504.78;5026788;28;917;-77
2021/11/22 03:04:37;;;;;;;;;;;;;;;22.34;29.38;97499.91;5060930;28;955;-77
2021/11/22 03:07:02;;;;;;;;;;;;;;;22.42;28.98;97503.25;5067674;28;893;-77
2021/11/22 03:09:28;;;;;;;;;;;;;;;22.57;29.48;97507.13;5066009;28;924;-77
2021/11/22 03:11:54;;;;;;;;;;;;;;;22.74;29.05;97494.31;5066768;28;1874;-77
2021/11/22 03:14:19;;;;;;;;;;;;;;;22.67;28.73;97494.59;5063982;28;856;-76
2021/11/22 03:16:45;;;;;;;;;;;;;;;22.50;28.89;97501.75;5066544;28;864;-77
2021/11/22 03:19:10;;;;;;;;;;;;;;;22.28;29.12;97507.44;5065334;28;928;-77
2021/11/22 03:21:36;;;;;;;;;;;;;;;22.42;29.16;97506.09;5067923;28;875;-77
2021/11/22 03:24:02;;;;;;;;;;;;;;;22.74;29.42;97502.00;5063341;28;923;-77
2021/11/22 03:26:27;;;;;;;;;;;;;;;22.85;28.83;97502.41;5049333;28;877;-77
2021/11/22 03:28:53;;;;;;;;;;;;;;;22.59;29.00;97515.97;5063371;28;1002;-77
2021/11/22 03:31:18;;;;;;;;;;;;;;;22.38;28.86;97525.28;5066869;28;1960;-77
2021/11/22 03:33:46;;;;;;;;;;;;;;;22.49;28.72;97511.50;5046290;28;1186;-77
2021/11/22 03:36:12;;;;;;;;;;;;;;;22.43;29.04;97507.66;5066653;28;974;-77
2021/11/22 03:38:37;;;;;;;;;;;;;;;22.31;29.24;97512.94;5062026;28;964;-77
2021/11/22 03:41:09;;;;;;;;;;;;;;;22.34;29.26;97509.19;5046360;28;908;-77
2021/11/22 03:43:58;;;;;;;;;;;;;;;22.40;29.09;97508.59;5042155;28;941;-77
2021/11/22 03:46:21;;;;;;;;;;;;;;;22.32;29.38;97513.75;5045570;28;1050;-78
2021/11/22 03:48:47;;;;;;;;;;;;;;;22.54;29.64;97519.41;5042092;28;917;-77
2021/11/22 03:51:12;;;;;;;;;;;;;;;22.65;29.39;97519.78;5029514;28;1902;-77
2021/11/22 03:53:38;;;;;;;;;;;;;;;22.48;29.41;97521.25;5008029;28;1190;-77
2021/11/22 03:56:03;;;;;;;;;;;;;;;22.11;29.66;97520.97;5065070;28;884;-76
2021/11/22 03:58:29;;;;;;;;;;;;;;;22.32;29.13;97519.41;5062258;28;884;-77
2021/11/22 04:00:54;;;;;;;;;;;;;;;22.29;29.60;97514.69;5025968;28;1257;-76
2021/11/22 04:03:20;;;;;;;;;;;;;;;22.49;29.88;97506.63;5005921;28;1044;-77
2021/11/22 04:05:45;;;;;;;;;;;;;;;22.68;29.17;97510.34;5025194;28;886;-77
2021/11/22 04:08:11;;;;;;;;;;;;;;;22.66;28.87;97521.38;5023166;28;938;-77
2021/11/22 04:10:37;;;;;;;;;;;;;;;22.24;29.45;97518.91;5024043;28;1902;-76
2021/11/22 04:13:03;;;;;;;;;;;;;;;22.18;29.74;97512.25;5041303;28;992;-77
2021/11/22 04:15:28;;;;;;;;;;;;;;;22.37;29.34;97524.47;5043610;28;915;-77
2021/11/22 04:17:54;;;;;;;;;;;;;;;22.12;30.08;97521.78;5043369;28;916;-76
2021/11/22 04:20:19;;;;;;;;;;;;;;;22.59;29.72;97522.44;5043502;28;934;-77
2021/11/22 04:22:45;;;;;;;;;;;;;;;22.73;29.30;97526.75;5045227;28;831;-79
2021/11/22 04:25:10;;;;;;;;;;;;;;;22.42;29.35;97521.06;5043326;28;900;-79
2021/11/22 04:27:36;;;;;;;;;;;;;;;22.33;29.13;97524.63;5044860;28;958;-79
2021/11/22 04:30:02;;;;;;;;;;;;;;;22.25;29.25;97525.34;5022243;28;975;-79
2021/11/22 04:32:28;;;;;;;;;;;;;;;22.46;29.57;97530.22;5039898;28;1886;-79
2021/11/22 04:34:56;;;;;;;;;;;;;;;22.74;29.17;97521.88;5042868;28;938;-79
2021/11/22 04:37:26;;;;;;;;;;;;;;;22.76;28.98;97517.31;5044078;28;999;-79
2021/11/22 04:39:52;;;;;;;;;;;;;;;22.57;28.98;97532.66;5041489;28;981;-79
2021/11/22 04:42:17;;;;;;;;;;;;;;;22.36;29.43;97532.19;5027948;28;858;-79
2021/11/22 04:44:43;;;;;;;;;;;;;;;22.47;29.10;97533.84;5043194;28;904;-79
2021/11/22 04:47:10;;;;;;;;;;;;;;;22.32;29.47;97537.19;5045644;28;854;-79
2021/11/22 04:49:36;;;;;;;;;;;;;;;22.36;29.37;97537.88;5043707;28;724;-79
2021/11/22 04:52:02;;;;;;;;;;;;;;;22.21;29.55;97542.47;5044404;28;1922;-79
2021/11/22 04:54:28;;;;;;;;;;;;;;;22.46;29.45;97541.56;5043211;28;1084;-79
2021/11/22 04:56:53;;;;;;;;;;;;;;;22.43;29.42;97547.34;5045080;28;916;-78
2021/11/22 04:59:19;;;;;;;;;;;;;;;22.56;29.66;97545.25;5042051;28;996;-79
2021/11/22 05:01:45;;;;;;;;;;;;;;;22.71;29.13;97546.28;5062546;28;975;-79
2021/11/22 05:04:10;;;;;;;;;;;;;;;22.58;29.18;97548.41;5065302;28;1003;-79
2021/11/22 05:06:35;;;;;;;;;;;;;;;22.12;29.80;97542.41;5069053;28;873;-79
2021/11/22 05:09:01;;;;;;;;;;;;;;;22.26;29.54;97556.06;5046261;28;1010;-79
2021/11/22 05:11:27;;;;;;;;;;;;;;;22.35;29.18;97552.50;5048187;28;1954;-79
2021/11/22 05:13:53;;;;;;;;;;;;;;;22.41;29.18;97561.22;5044853;28;852;-79
2021/11/22 05:16:18;;;;;;;;;;;;;;;22.43;29.76;97564.38;5048540;28;846;-79
2021/11/22 05:18:44;;;;;;;;;;;;;;;22.75;29.25;97566.81;5042894;28;779;-79
2021/11/22 05:21:09;;;;;;;;;;;;;;;22.82;29.04;97575.03;5031729;28;814;-78
2021/11/22 05:23:35;;;;;;;;;;;;;;;22.35;29.14;97578.81;5026160;28;906;-79
2021/11/22 05:26:01;;;;;;;;;;;;;;;22.29;29.42;97574.97;5047575;28;858;-78
2021/11/22 05:28:27;;;;;;;;;;;;;;;22.47;29.19;97579.19;5004576;28;1138;-78
2021/11/22 05:30:52;;;;;;;;;;;;;;;22.58;29.62;97585.25;5008436;28;1973;-79
2021/11/22 05:33:18;;;;;;;;;;;;;;;22.74;29.24;97590.75;5004341;28;936;-80
2021/11/22 05:35:43;;;;;;;;;;;;;;;22.34;29.39;97596.28;5007353;28;895;-79
2021/11/22 05:38:09;;;;;;;;;;;;;;;22.42;29.35;97599.63;5005421;28;946;-79
2021/11/22 05:40:34;;;;;;;;;;;;;;;22.38;29.37;97602.59;5035970;28;1022;-79
2021/11/22 05:43:00;;;;;;;;;;;;;;;22.34;29.24;97602.75;5044437;28;1041;-79
2021/11/22 05:45:26;;;;;;;;;;;;;;;22.27;29.58;97602.97;5028475;28;707;-79
2021/11/22 05:47:51;;;;;;;;;;;;;;;22.40;29.16;97599.31;5044787;28;929;-79
2021/11/22 05:50:18;;;;;;;;;;;;;;;22.38;29.79;97602.59;5024129;28;1330;-79
2021/11/22 05:52:48;;;;;;;;;;;;;;;22.76;29.09;97602.41;5025218;28;1902;-79
2021/11/22 05:55:19;;;;;;;;;;;;;;;22.50;29.31;97606.66;5024544;28;1002;-79
2021/11/22 05:57:44;;;;;;;;;;;;;;;22.53;29.08;97605.72;5025567;28;842;-79
2021/11/22 06:00:10;;;;;;;;;;;;;;;22.34;29.34;97608.41;5040053;28;904;-79
2021/11/22 06:02:41;;;;;;;;;;;;;;;22.06;29.69;97609.38;5045566;28;1007;-80
2021/11/22 06:05:07;;;;;;;;;;;;;;;22.15;30.27;97606.66;5043320;28;951;-78
2021/11/22 06:07:32;;;;;;;;;;;;;;;22.71;29.58;97611.53;5045599;28;762;-79
2021/11/22 06:09:58;;;;;;;;;;;;;;;22.83;29.15;97604.97;5044151;28;901;-79
2021/11/22 06:12:24;;;;;;;;;;;;;;;22.45;29.26;97612.91;5045986;28;1906;-79
2021/11/22 06:14:52;;;;;;;;;;;;;;;22.23;29.54;97613.66;5043809;28;937;-80
2021/11/22 06:17:17;;;;;;;;;;;;;;;22.30;29.42;97613.41;5045280;28;977;-79
2021/11/22 06:19:43;;;;;;;;;;;;;;;22.40;30.10;97617.13;5043328;28;1008;-79
2021/11/22 06:22:08;;;;;;;;;;;;;;;22.72;29.57;97626.50;5029529;28;1039;-79
2021/11/22 06:24:34;;;;;;;;;;;;;;;22.53;29.13;97634.06;5024783;28;829;-79
2021/11/22 06:27:01;;;;;;;;;;;;;;;22.45;29.34;97624.25;5026513;28;825;-80
2021/11/22 06:29:27;;;;;;;;;;;;;;;22.49;28.92;97624.91;5043933;28;897;-79
2021/11/22 06:31:52;;;;;;;;;;;;;;;22.28;28.90;97638.59;5045870;28;1949;-79
2021/11/22 06:34:18;;;;;;;;;;;;;;;22.70;29.78;97634.69;5043676;28;833;-79
2021/11/22 06:36:44;;;;;;;;;;;;;;;22.77;29.21;97628.72;5045783;28;999;-79
2021/11/22 06:39:09;;;;;;;;;;;;;;;22.67;28.78;97630.72;5043434;28;904;-78
2021/11/22 06:41:34;;;;;;;;;;;;;;;22.52;29.23;97635.31;5045932;28;1014;-80
2021/11/22 06:44:02;;;;;;;;;;;;;;;22.30;29.20;97636.09;5011761;28;931;-79
2021/11/22 06:46:27;;;;;;;;;;;;;;;22.29;29.70;97640.16;5046452;28;883;-79
2021/11/22 06:48:53;;;;;;;;;;;;;;;22.84;29.28;97646.25;5043410;28;1003;-79
2021/11/22 06:51:18;;;;;;;;;;;;;;;22.96;28.92;97646.72;4987899;28;1962;-79
2021/11/22 06:53:44;;;;;;;;;;;;;;;22.97;28.96;97653.97;4983174;28;985;-79
2021/11/22 06:56:09;;;;;;;;;;;;;;;22.62;29.00;97651.16;4987718;28;978;-79
2021/11/22 06:58:35;;;;;;;;;;;;;;;22.55;29.12;97648.59;5002612;28;995;-79
2021/11/22 07:01:00;;;;;;;;;;;;;;;22.49;28.92;97658.94;5007128;28;803;-79
2021/11/22 07:03:27;;;;;;;;;;;;;;;22.38;29.10;97664.16;5002534;28;1327;-80
2021/11/22 07:05:53;;;;;;;;;;;;;;;22.32;29.06;97661.91;5006936;28;890;-79
2021/11/22 07:08:18;;;;;;;;;;;;;;;22.22;29.72;97648.91;5003801;28;944;-79
2021/11/22 07:10:44;;;;;;;;;;;;;;;22.37;29.47;97657.72;5007010;28;1898;-79
2021/11/22 07:13:09;;;;;;;;;;;;;;;22.59;30.25;97663.44;5004211;28;880;-79
2021/11/22 07:15:36;;;;;;;;;;;;;;;22.79;29.56;97657.41;5006070;28;1132;-79
2021/11/22 07:18:03;;;;;;;;;;;;;;;22.74;29.50;97655.16;4964789;28;1217;-79
2021/11/22 07:20:28;;;;;;;;;;;;;;;22.59;29.36;97664.22;4889766;29;986;-78
2021/11/22 07:22:54;;;;;;;;;;;;;;;22.31;29.47;97657.50;4889415;29;1095;-77
2021/11/22 07:25:19;;;;;;;;;;;;;;;22.52;29.21;97658.00;4889695;29;944;-77
2021/11/22 07:27:45;;;;;;;;;;;;;;;22.29;29.58;97657.19;4894122;29;941;-77
2021/11/22 07:30:10;;;;;;;;;;;;;;;22.52;30.16;97658.78;4926106;29;931;-77
2021/11/22 07:32:36;;;;;;;;;;;;;;;22.79;29.41;97655.38;4928556;29;1923;-77
2021/11/22 07:35:01;;;;;;;;;;;;;;;22.62;29.43;97653.97;4926475;29;938;-78
2021/11/22 07:37:27;;;;;;;;;;;;;;;22.47;29.58;97650.06;4891776;29;1152;-77
2021/11/22 07:39:52;;;;;;;;;;;;;;;22.53;29.20;97654.69;4889257;29;964;-77
2021/11/22 07:42:18;;;;;;;;;;;;;;;22.34;29.40;97652.97;4910334;29;954;-77
2021/11/22 07:44:44;;;;;;;;;;;;;;;22.67;29.89;97652.59;4907245;29;983;-77
2021/11/22 07:47:09;;;;;;;;;;;;;;;22.77;29.59;97646.53;4909773;29;1040;-77
2021/11/22 07:49:35;;;;;;;;;;;;;;;22.65;29.33;97650.25;4906778;29;1031;-78
2021/11/22 07:52:00;;;;;;;;;;;;;;;22.59;29.20;97650.03;4937174;29;1891;-77
2021/11/22 07:54:26;;;;;;;;;;;;;;;22.36;29.38;97656.91;4944849;29;963;-77
2021/11/22 07:56:51;;;;;;;;;;;;;;;22.28;29.79;97661.28;4951014;28;988;-78
2021/11/22 07:59:19;;;;;;;;;;;;;;;22.41;29.29;97660.44;4983665;28;946;-77
2021/11/22 08:01:45;;;;;;;;;;;;;;;22.63;29.87;97656.34;4987158;28;997;-78
2021/11/22 08:04:14;;;;;;;;;;;;;;;22.75;29.69;97663.25;4984532;28;986;-78
2021/11/22 08:06:47;;;;;;;;;;;;;;;22.66;29.52;97657.50;4986640;28;918;-77
2021/11/22 08:09:16;;;;;;;;;;;;;;;22.46;29.47;97662.69;4984530;28;911;-77
2021/11/22 08:14:25;;;;;;;;;;;;;;;22.23;29.68;97670.34;4948994;28;949;-77
2021/11/22 08:16:51;;;;;;;;;;;;;;;22.53;30.30;97676.59;5005627;28;1029;-77
2021/11/22 08:19:16;;;;;;;;;;;;;;;22.73;29.82;97677.06;5002982;28;989;-77
2021/11/22 08:21:42;;;;;;;;;;;;;;;22.61;29.38;97675.09;5024811;28;879;-77
2021/11/22 08:24:07;;;;;;;;;;;;;;;22.39;29.57;97671.44;5023085;28;931;-77
2021/11/22 08:26:33;;;;;;;;;;;;;;;22.41;29.44;97680.28;5024922;28;823;-77
2021/11/22 08:28:58;;;;;;;;;;;;;;;22.38;29.50;97678.34;5023570;28;957;-78
2021/11/22 08:31:24;;;;;;;;;;;;;;;22.28;29.48;97678.28;5009820;28;1965;-78
2021/11/22 08:33:49;;;;;;;;;;;;;;;22.51;30.09;97673.44;5022712;28;898;-77
2021/11/22 08:36:15;;;;;;;;;;;;;;;22.78;29.50;97676.47;5026236;28;997;-77
2021/11/22 08:38:40;;;;;;;;;;;;;;;22.79;29.41;97686.56;5021210;28;882;-77
2021/11/22 08:41:06;;;;;;;;;;;;;;;22.42;29.51;97682.63;5026584;28;953;-77
2021/11/22 08:43:31;;;;;;;;;;;;;;;22.30;29.56;97675.75;5025140;28;934;-78
2021/11/22 08:45:57;;;;;;;;;;;;;;;22.30;29.59;97675.75;5030104;28;997;-78
2021/11/22 08:48:25;;;;;;;;;;;;;;;22.57;29.06;97672.38;5030100;28;905;-77
2021/11/22 08:50:50;;;;;;;;;;;;;;;22.48;29.27;97675.13;5065078;28;1882;-77
2021/11/22 08:53:16;;;;;;;;;;;;;;;22.54;30.06;97683.88;5068125;28;913;-77
2021/11/22 08:55:41;;;;;;;;;;;;;;;22.85;29.11;97666.94;5071983;28;943;-77
2021/11/22 08:58:07;;;;;;;;;;;;;;;22.83;29.06;97678.72;5068896;28;1001;-77
2021/11/22 09:00:33;;;;;;;;;;;;;;;22.33;30.01;97674.06;5069071;28;850;-77
2021/11/22 09:02:58;;;;;;;;;;;;;;;22.23;29.79;97670.34;5068513;28;993;-77
2021/11/22 09:05:24;;;;;;;;;;;;;;;22.41;29.48;97677.44;5033841;28;847;-77
2021/11/22 09:07:49;;;;;;;;;;;;;;;22.56;30.14;97670.00;5027290;28;1150;-77
2021/11/22 09:10:15;;;;;;;;;;;;;;;22.83;29.63;97661.72;5009391;28;1037;-77
2021/11/22 09:12:40;;;;;;;;;;;;;;;22.74;29.10;97663.69;5027479;28;1910;-77
2021/11/22 09:15:06;;;;;;;;;;;;;;;22.54;29.46;97672.53;4993135;28;911;-77
2021/11/22 09:17:31;;;;;;;;;;;;;;;22.50;29.09;97666.19;5028165;28;897;-77
2021/11/22 09:19:57;;;;;;;;;;;;;;;22.47;29.14;97667.88;5026017;28;986;-76
2021/11/22 09:22:22;;;;;;;;;;;;;;;22.50;28.93;97669.03;5027928;28;913;-78
2021/11/22 09:24:49;;;;;;;;;;;;;;;22.12;29.55;97658.56;5009405;28;1376;-78
2021/11/22 09:27:15;;;;;;;;;;;;;;;22.16;29.60;97670.56;5029923;28;801;-77
2021/11/22 09:29:40;;;;;;;;;;;;;;;22.35;29.43;97669.50;5027087;28;868;-78
2021/11/22 09:32:06;;;;;;;;;;;;;;;22.38;29.58;97664.16;5028708;28;1997;-77
2021/11/22 09:34:31;;;;;;;;;;;;;;;22.27;29.63;97659.66;4966828;29;1043;-78
2021/11/22 09:36:57;;;;;;;;;;;;;;;22.50;30.13;97660.50;4969184;29;873;-78
2021/11/22 09:39:22;;;;;;;;;;;;;;;22.70;30.03;97658.16;5010155;28;1026;-78
2021/11/22 09:41:49;;;;;;;;;;;;;;;22.52;30.05;97658.78;4971931;28;994;-78
2021/11/22 09:44:15;;;;;;;;;;;;;;;22.53;29.70;97648.22;4986385;28;1020;-78
2021/11/22 09:46:40;;;;;;;;;;;;;;;22.13;30.12;97650.88;4988701;28;952;-78
2021/11/22 09:49:06;;;;;;;;;;;;;;;22.30;29.81;97650.25;4986282;28;965;-78
2021/11/22 09:51:31;;;;;;;;;;;;;;;22.28;29.80;97651.97;4989378;28;1910;-78
2021/11/22 09:53:57;;;;;;;;;;;;;;;22.12;29.88;97644.41;4984669;28;1008;-79
2021/11/22 09:56:23;;;;;;;;;;;;;;;22.21;29.85;97649.38;4988424;28;996;-78
2021/11/22 09:58:49;;;;;;;;;;;;;;;22.23;29.70;97647.69;4946662;29;927;-78
2021/11/22 10:01:15;;;;;;;;;;;;;;;22.54;30.36;97644.97;4951019;29;890;-78
2021/11/22 10:03:56;;;;;;;;;;;;;;;22.68;29.88;97654.97;4930460;29;949;-78
2021/11/22 10:06:22;;;;;;;;;;;;;;;22.56;29.86;97647.31;4947060;29;1160;-78
2021/11/22 10:08:47;;;;;;;;;;;;;;;22.46;30.00;97645.66;4946117;29;851;-78
2021/11/22 10:11:16;;;;;;;;;;;;;;;22.33;30.06;97646.50;4950725;29;1969;-78
2021/11/22 10:13:42;;;;;;;;;;;;;;;22.46;29.77;97642.81;4977169;28;1371;-78
2021/11/22 10:16:07;;;;;;;;;;;;;;;22.50;30.40;97644.28;5009146;28;840;-78
2021/11/22 10:18:33;;;;;;;;;;;;;;;22.88;29.76;97641.28;5003768;28;890;-77
2021/11/22 10:21:03;;;;;;;;;;;;;;;22.79;29.24;97638.34;5008562;28;950;-78
2021/11/22 10:23:29;;;;;;;;;;;;;;;22.57;29.64;97634.72;5004017;28;990;-78
2021/11/22 10:25:55;;;;;;;;;;;;;;;22.50;29.29;97635.78;5009143;28;890;-78
2021/11/22 10:28:24;;;;;;;;;;;;;;;22.42;29.62;97637.28;5004233;28;878;-78
2021/11/22 10:30:56;;;;;;;;;;;;;;;22.43;29.18;97638.06;5027078;28;1979;-78
2021/11/22 10:33:22;;;;;;;;;;;;;;;22.26;29.83;97638.25;5044013;28;969;-78
2021/11/22 10:35:49;;;;;;;;;;;;;;;22.43;29.70;97638.06;5028003;28;947;-78
2021/11/22 10:38:15;;;;;;;;;;;;;;;22.88;30.21;97646.97;5024838;28;957;-78
2021/11/22 10:40:50;;;;;;;;;;;;;;;22.76;29.83;97639.28;5026867;28;987;-78
2021/11/22 10:43:16;;;;;;;;;;;;;;;22.29;30.41;97634.50;5023779;28;910;-78
2021/11/22 10:45:45;;;;;;;;;;;;;;;22.32;30.09;97633.56;5026999;28;916;-78
2021/11/22 10:48:22;;;;;;;;;;;;;;;22.15;30.25;97628.53;5024504;28;909;-78
2021/11/22 10:50:55;;;;;;;;;;;;;;;22.33;29.88;97634.38;5027119;28;1882;-78
2021/11/22 10:53:30;;;;;;;;;;;;;;;22.50;30.68;97630.13;5022655;28;977;-78
2021/11/22 10:55:55;;;;;;;;;;;;;;;22.75;29.86;97632.03;5067147;28;878;-78
2021/11/22 10:58:39;;;;;;;;;;;;;;;22.54;30.00;97632.84;5046701;28;1016;-78
2021/11/22 11:01:13;;;;;;;;;;;;;;;22.52;29.72;97629.66;5067540;28;919;-77
2021/11/22 11:03:39;;;;;;;;;;;;;;;22.26;30.27;97635.41;5063476;28;885;-78
2021/11/22 11:06:04;;;;;;;;;;;;;;;22.46;29.68;97631.50;5072818;28;783;-78
2021/11/22 11:08:30;;;;;;;;;;;;;;;22.26;30.16;97624.06;5066707;28;995;-78
2021/11/22 11:11:09;;;;;;;;;;;;;;;22.40;30.11;97627.66;5089182;28;1883;-78
2021/11/22 11:13:47;;;;;;;;;;;;;;;22.74;30.32;97624.78;5084167;28;917;-78
2021/11/22 11:16:13;;;;;;;;;;;;;;;22.71;29.85;97625.69;5088772;28;803;-78
2021/11/22 11:18:38;;;;;;;;;;;;;;;22.48;30.26;97631.81;5084258;28;869;-78
2021/11/22 11:21:04;;;;;;;;;;;;;;;22.38;29.99;97630.16;5089091;28;930;-78
2021/11/22 11:23:29;;;;;;;;;;;;;;;22.48;29.93;97618.41;5084818;28;960;-78
2021/11/22 11:25:55;;;;;;;;;;;;;;;22.61;29.56;97621.22;5087672;28;822;-80
2021/11/22 11:28:20;;;;;;;;;;;;;;;22.33;29.92;97628.72;5083146;28;921;-78
2021/11/22 11:30:45;;;;;;;;;;;;;;;22.20;30.09;97620.25;5065886;28;1947;-78
2021/11/22 11:33:12;;;;;;;;;;;;;;;22.26;30.17;97623.28;5029984;28;1094;-78
2021/11/22 11:35:38;;;;;;;;;;;;;;;22.00;30.14;97616.88;5049208;28;906;-79
2021/11/22 11:38:12;;;;;;;;;;;;;;;22.40;30.63;97624.84;5046846;28;863;-77
2021/11/22 11:40:56;;;;;;;;;;;;;;;22.75;30.05;97620.69;5065664;28;798;-79
2021/11/22 11:43:34;;;;;;;;;;;;;;;22.69;29.88;97622.56;5063484;28;945;-79
2021/11/22 11:46:01;;;;;;;;;;;;;;;22.44;29.88;97622.66;5067708;28;960;-79
2021/11/22 11:48:35;;;;;;;;;;;;;;;22.54;29.77;97624.31;5063126;28;992;-78
2021/11/22 11:51:04;;;;;;;;;;;;;;;22.51;29.65;97634.53;5066326;28;1988;-77
2021/11/22 11:53:30;;;;;;;;;;;;;;;22.40;29.62;97627.66;5061954;28;929;-79
2021/11/22 11:56:09;;;;;;;;;;;;;;;22.34;29.88;97631.09;5050477;28;926;-78
2021/11/22 11:58:34;;;;;;;;;;;;;;;22.25;30.05;97627.38;5022601;28;882;-79
2021/11/22 12:01:01;;;;;;;;;;;;;;;22.49;30.50;97630.59;5027000;28;935;-78
2021/11/22 12:03:27;;;;;;;;;;;;;;;22.67;30.12;97630.72;5002726;28;1015;-79
2021/11/22 12:05:53;;;;;;;;;;;;;;;22.56;29.82;97631.09;4968416;29;882;-78
2021/11/22 12:08:28;;;;;;;;;;;;;;;22.43;30.02;97624.69;4954956;29;940;-78
2021/11/22 12:10:56;;;;;;;;;;;;;;;22.54;29.76;97630.00;4967845;29;1977;-78
2021/11/22 12:13:22;;;;;;;;;;;;;;;22.11;30.29;97634.31;4963569;29;1062;-79
2021/11/22 12:15:53;;;;;;;;;;;;;;;22.29;29.72;97640.16;4968072;28;943;-79
2021/11/22 12:18:19;;;;;;;;;;;;;;;22.34;29.88;97642.41;4969529;29;986;-79
2021/11/22 12:20:45;;;;;;;;;;;;;;;22.36;29.66;97639.91;4972485;29;948;-78
2021/11/22 12:23:12;;;;;;;;;;;;;;;22.47;30.32;97628.19;4950063;29;914;-78
2021/11/22 12:25:37;;;;;;;;;;;;;;;22.73;29.89;97631.69;4932291;29;943;-78
2021/11/22 12:28:23;;;;;;;;;;;;;;;22.58;29.94;97630.63;4931384;29;957;-79
2021/11/22 12:30:53;;;;;;;;;;;;;;;22.33;30.18;97635.19;4895626;29;1892;-78
2021/11/22 12:33:24;;;;;;;;;;;;;;;22.43;29.92;97629.56;4893151;29;931;-78
2021/11/22 12:35:50;;;;;;;;;;;;;;;22.34;29.73;97633.91;4914311;29;909;-79
2021/11/22 12:38:28;;;;;;;;;;;;;;;22.30;30.00;97624.75;4911371;29;1021;-78
2021/11/22 12:40:55;;;;;;;;;;;;;;;22.27;29.73;97622.81;4898562;29;986;-78
2021/11/22 12:43:38;;;;;;;;;;;;;;;22.26;29.91;97621.25;4891778;29;974;-79
2021/11/22 12:46:04;;;;;;;;;;;;;;;22.69;30.12;97622.56;4896133;29;938;-79
2021/11/22 12:48:32;;;;;;;;;;;;;;;22.81;29.61;97630.19;4910523;29;947;-79
2021/11/22 12:50:59;;;;;;;;;;;;;;;22.63;29.53;97619.47;4916233;29;1879;-79
2021/11/22 12:53:25;;;;;;;;;;;;;;;22.38;30.12;97624.47;4910547;29;1022;-78
2021/11/22 12:55:50;;;;;;;;;;;;;;;22.24;30.14;97631.47;4898058;29;965;-79
2021/11/22 12:58:23;;;;;;;;;;;;;;;22.39;29.53;97634.59;4911403;29;943;-79
2021/11/22 13:00:49;;;;;;;;;;;;;;;22.52;29.24;97635.31;4936365;29;981;-78
2021/11/22 13:03:21;;;;;;;;;;;;;;;22.44;29.61;97629.13;4948565;29;936;-78
2021/11/22 13:05:54;;;;;;;;;;;;;;;22.31;29.72;97632.00;4952076;29;901;-78